首页
METAR-TAF:

METAR-TAF

机场 :

布鲁姆, 澳大利亚

纬度: 17-57S, 经度: 122-13E, 海拔: 17米

当前天气观测

该预报发布于52分钟前的00:00 UTC
风速10节,风向西转西北
温度 31°C
湿度 71%
气压 1007 hPa
能见度10公里或以上
1500米以下无云,无积雨云

METAR: YBRM 110000Z 30010KT CAVOK 31/25 Q1007

时间: 08:52 (00:52 UTC)

预报

该预报发布于1小时和44分钟前的23:08 UTC
预报有效从11日的 00点(UTC)到 11日的 24点(UTC)
风速10节,风向西
能见度10公里或以上
1500米以下无云,无积雨云
从 11日的 1200点(UTC)
风速10节,风向西转西北
能见度10公里或以上
散云层高于1500英尺
从 11日的 1800点(UTC)
风速10节,风向西
能见度10公里或以上
多云层高于1500英尺

TAF: YBRM 102308Z 1100/1124 28010KT CAVOK FM111200 29010KT 9999 SCT015 FM111800 27010KT 9999 BKN015

超过4000个机场的气象观测和天气预报(METAR&TAF报告)。

可查询的气象台以黄色和红色小点在地图上表示。

将鼠标移到小点上方,可查看气象台名称。

然后点击查看天气观测和预报。

如需切换地图:点击带黑十字的绿色按钮放大地图;点击带横线的绿色按钮缩小地图;或者点击绿色箭头查看邻近地区的地图。


METAR-TAF: